Map

Track Data

SID SEASON NUMBER BASIN SUBBASIN NAME ISO_TIME NATURE LAT LON WMO_WIND WMO_PRES WMO_AGENCY TRACK_TYPE DIST2LAND LANDFALL IFLAG USA_AGENCY USA_ATCF_ID USA_LAT USA_LON USA_RECORD USA_STATUS USA_WIND USA_PRES USA_SSHS USA_R34_NE USA_R34_SE USA_R34_SW USA_R34_NW USA_R50_NE USA_R50_SE USA_R50_SW USA_R50_NW USA_R64_NE USA_R64_SE USA_R64_SW USA_R64_NW USA_POCI USA_ROCI USA_RMW USA_EYE TOKYO_LAT TOKYO_LON TOKYO_GRADE TOKYO_WIND TOKYO_PRES TOKYO_R50_DIR TOKYO_R50_LONG TOKYO_R50_SHORT TOKYO_R30_DIR TOKYO_R30_LONG TOKYO_R30_SHORT TOKYO_LAND CMA_LAT CMA_LON CMA_CAT CMA_WIND CMA_PRES HKO_LAT HKO_LON HKO_CAT HKO_WIND HKO_PRES NEWDELHI_LAT NEWDELHI_LON NEWDELHI_GRADE NEWDELHI_WIND NEWDELHI_PRES NEWDELHI_CI NEWDELHI_DP NEWDELHI_POCI REUNION_LAT REUNION_LON REUNION_TYPE REUNION_WIND REUNION_PRES REUNION_TNUM REUNION_CI REUNION_RMW REUNION_R34_NE REUNION_R34_SE REUNION_R34_SW REUNION_R34_NW REUNION_R50_NE REUNION_R50_SE REUNION_R50_SW REUNION_R50_NW REUNION_R64_NE REUNION_R64_SE REUNION_R64_SW REUNION_R64_NW BOM_LAT BOM_LON BOM_TYPE BOM_WIND BOM_PRES BOM_TNUM BOM_CI BOM_RMW BOM_R34_NE BOM_R34_SE BOM_R34_SW BOM_R34_NW BOM_R50_NE BOM_R50_SE BOM_R50_SW BOM_R50_NW BOM_R64_NE BOM_R64_SE BOM_R64_SW BOM_R64_NW BOM_ROCI BOM_POCI BOM_EYE BOM_POS_METHOD BOM_PRES_METHOD NADI_LAT NADI_LON NADI_CAT NADI_WIND NADI_PRES WELLINGTON_LAT WELLINGTON_LON WELLINGTON_WIND WELLINGTON_PRES DS824_LAT DS824_LON DS824_STAGE DS824_WIND DS824_PRES TD9636_LAT TD9636_LON TD9636_STAGE TD9636_WIND TD9636_PRES TD9635_LAT TD9635_LON TD9635_WIND TD9635_PRES TD9635_ROCI NEUMANN_LAT NEUMANN_LON NEUMANN_CLASS NEUMANN_WIND NEUMANN_PRES MLC_LAT MLC_LON MLC_CLASS MLC_WIND MLC_PRES USA_GUST BOM_GUST BOM_GUST_PER REUNION_GUST REUNION_GUST_PER USA_SEAHGT USA_SEARAD_NE USA_SEARAD_SE USA_SEARAD_SW USA_SEARAD_NW STORM_SPEED STORM_DIR
1975334S11128 1976 142 SI WA JOAN 1975-11-30 00:00:00 TS -11.0000 128.400 main 193 193 O_________O___ jtwc_sh SH041976 -11.0000 128.400 20 -1 -11.0000 128.400 1 22 2 135
1975334S11128 1976 142 SI WA JOAN 1975-11-30 01:00:00 TS -11.0280 128.401 25 1005 bom main 193 190 P_____O___P___ SH041976 -11.0123 128.405 20 -1 -11.1000 128.400 20 25 1005 1.50000 -11.0233 128.391 1 22 1 0
1975334S11128 1976 142 SI WA JOAN 1975-11-30 03:00:00 TS -11.0569 128.399 main 190 190 P_____P___P___ SH041976 -11.0400 128.412 22 -1 -11.0877 128.398 20 25 1002 -11.0703 128.373 1 24 1 0
1975334S11128 1976 142 SI WA JOAN 1975-11-30 04:00:00 TS -11.0754 128.397 25 1002 bom main 190 190 P_____O___P___ SH041976 -11.0568 128.412 23 -1 -11.1000 128.400 20 25 1002 2.00000 -11.0941 128.365 1 24 2 177
1975334S11128 1976 142 SI WA JOAN 1975-11-30 06:00:00 TS -11.1359 128.401 main 190 188 O_____P__OP_O_ jtwc_sh SH041976 -11.1000 128.400 25 -1 -11.1691 128.408 20 25 999 -11.2000 128.400 TC 35 998 -11.1425 128.348 1 26 -11.2000 128.600 TC 25 1002 2 0
1975334S11128 1976 142 SI WA JOAN 1975-11-30 07:00:00 TS -11.1653 128.394 25 998 bom main 188 188 P_____O__PP_P_ SH041976 -11.1276 128.386 25 -1 -11.2000 128.400 20 25 998 2.00000 -11.1916 128.358 TC 35 997 -11.1673 128.339 1 26 -11.2167 128.557 TC 26 1001 2 218
1975334S11128 1976 142 SI WA JOAN 1975-11-30 09:00:00 TS -11.2058 128.351 main 188 188 P_____P__PP_P_ SH041976 -11.1925 128.350 27 -1 -11.2054 128.339 20 28 997 -11.1804 128.280 TC 35 997 -11.2184 128.323 1 28 -11.2500 128.478 TC 30 1000 2 228
1975334S11128 1976 142 SI WA JOAN 1975-11-30 10:00:00 TS -11.2247 128.328 30 997 bom main 199 197 P_____O__PP_P_ SH041976 -11.2279 128.331 28 -1 -11.2000 128.300 20 30 997 2.50000 -11.1807 128.247 TC 35 997 -11.2449 128.315 1 28 -11.2667 128.444 TC 31 999 2 221
1975334S11128 1976 142 SI WA JOAN 1975-11-30 12:00:00 TS -11.2654 128.288 main 197 197 O_____P__OO_O_ jtwc_sh SH041976 -11.3000 128.300 30 -1 -11.1921 128.225 20 30 997 -11.2000 128.200 TC 35 997 -11.3000 128.300 1 30 -11.3000 128.400 TC 35 998 2 223
1975334S11128 1976 142 SI WA JOAN 1975-11-30 13:00:00 TS -11.2889 128.278 30 997 bom main 197 197 P_____O__PP_P_ SH041976 -11.3333 128.297 30 -1 -11.2000 128.200 20 30 997 2.50000 -11.2215 128.189 TC 35 996 -11.3287 128.293 1 30 -11.3167 128.391 TC 35 997 2 0
1975334S11128 1976 142 SI WA JOAN 1975-11-30 15:00:00 TS -11.3473 128.275 main 197 196 P_____P__PP_P_ SH041976 -11.4000 128.300 32 -1 -11.2612 128.195 20 30 996 -11.2837 128.186 TC 37 995 -11.3887 128.279 1 32 -11.3500 128.392 TC 35 997 2 0
1975334S11128 1976 142 SI WA JOAN 1975-11-30 16:00:00 TS -11.3791 128.277 30 996 bom main 196 196 P_____O__PP_P_ SH041976 -11.4333 128.302 33 -1 -11.3000 128.200 20 30 996 2.50000 -11.3211 128.190 TC 38 995 -11.4200 128.272 1 32 -11.3667 128.397 TC 35 996 2 168
1975334S11128 1976 142 SI WA JOAN 1975-11-30 18:00:00 TS -11.4419 128.276 main 196 196 O_____P__OP_O_ jtwc_sh SH041976 -11.5000 128.300 35 0 -11.3667 128.200 20 36 994 -11.4000 128.200 TC 40 994 -11.4850 128.257 1 34 -11.4000 128.400 TC 35 996 2 196
1975334S11128 1976 142 SI WA JOAN 1975-11-30 19:00:00 TS -11.4721 128.269 40 994 bom main 196 196 P_____O__PP_P_ SH041976 -11.5333 128.289 35 0 -11.4000 128.200 30 40 994 3.00000 -11.4333 128.197 TC 40 993 -11.5187 128.250 1 35 -11.4140 128.389 TC 35 995 2 0
1975334S11128 1976 142 SI WA JOAN 1975-11-30 21:00:00 TS -11.5330 128.249 main 207 207 P_____P__PP_P_ SH041976 -11.6000 128.258 37 0 -11.4667 128.200 30 40 994 -11.5000 128.189 TC 41 993 -11.5887 128.232 1 36 -11.4425 128.357 TC 37 995 2 199
1975334S11128 1976 142 SI WA JOAN 1975-11-30 22:00:00 TS -11.5640 128.237 40 994 bom main 207 207 P_____O__PP_P_ SH041976 -11.6333 128.239 38 0 -11.5000 128.200 30 40 994 3.00000 -11.5333 128.183 TC 41 992 -11.6250 128.222 1 37 -11.4588 128.339 TC 38 994 2 205
1975334S11128 1976 142 SI WA JOAN 1975-12-01 00:00:00 TS -11.6278 128.213 main 207 207 O_____P__PO_O_ jtwc_sh SH041976 -11.7000 128.200 40 0 -11.5667 128.208 30 40 994 -11.6000 128.169 TC 42 992 -11.7000 128.200 2 39 -11.5000 128.300 TC 40 994 2 203
1975334S11128 1976 142 SI WA JOAN 1975-12-01 01:00:00 TS -11.6601 128.199 40 994 bom main 207 207 P_____O__PP_P_ SH041976 -11.7307 128.183 40 0 -11.6000 128.200 30 40 994 3.00000 3.00000 -11.6333 128.160 TC 42 991 -11.7408 128.187 2 39 -11.5250 128.283 TC 40 993 2 207
1975334S11128 1976 142 SI WA JOAN 1975-12-01 03:00:00 TS -11.7271 128.163 main 207 206 P_____P__PP_P_ SH041976 -11.7925 128.150 40 0 -11.6667 128.131 30 40 992 -11.7000 128.139 TC 43 991 -11.8259 128.157 2 40 -11.5850 128.250 TC 42 992 2 211
1975334S11128 1976 142 SI WA JOAN 1975-12-01 04:00:00 TS -11.7623 128.145 40 992 bom main 217 217 P_____O__PP_P_ SH041976 -11.8254 128.133 40 0 -11.7000 128.100 30 40 992 3.00000 -11.7333 128.127 TC 44 990 -11.8696 128.141 2 40 -11.6200 128.233 TC 43 992 2 202
1975334S11128 1976 142 SI WA JOAN 1975-12-01 06:00:00 TS -11.8374 128.118 main 217 217 O_____P__OP_O_ jtwc_sh SH041976 -11.9000 128.100 40 0 -11.7667 128.102 30 40 990 -11.8000 128.100 TC 45 990 -11.9575 128.108 2 41 -11.7000 128.200 TC 45 991 2 200
1975334S11128 1976 142 SI WA JOAN 1975-12-01 07:00:00 TS -11.8795 128.104 40 990 bom main 218 218 P_____O__PP_P_ SH041976 -11.9495 128.083 40 0 -11.8000 128.100 30 40 990 3.00000 -11.8302 128.085 TC 45 989 -12.0010 128.090 2 41 -11.7469 128.183 TC 45 990 3 205
1975334S11128 1976 142 SI WA JOAN 1975-12-01 09:00:00 TS -11.9668 128.065 main 218 218 P_____P__PP_P_ SH041976 -12.0575 128.050 42 0 -11.8588 128.031 30 43 989 -11.8918 128.052 TC 47 989 -12.0853 128.054 2 42 -11.8500 128.150 TC 47 990 3 201
1975334S11128 1976 142 SI WA JOAN 1975-12-01 10:00:00 TS -12.0123 128.045 45 989 bom main 223 213 P_____O__PP_P_ SH041976 -12.1104 128.033 43 0 -11.9000 128.000 30 45 989 3.00000 -11.9250 128.035 TC 48 989 -12.1255 128.036 2 42 -11.9025 128.133 TC 48 989 3 193
1975334S11128 1976 142 SI WA JOAN 1975-12-01 12:00:00 TS -12.1060 128.017 main 213 213 O_____P__OO_O_ jtwc_sh SH041976 -12.2000 128.000 45 0 -12.0358 128.002 30 45 989 -12.0000 128.000 TC 50 989 -12.2000 128.000 2 43 -12.0000 128.100 TC 50 989 3 195
1975334S11128 1976 142 SI WA JOAN 1975-12-01 13:00:00 TS -12.1444 128.003 45 989 bom main 213 204 P_____O__PP_P_ SH041976 -12.2255 127.983 45 0 -12.1000 128.000 30 45 989 3.00000 -12.0469 127.983 TC 50 988 -12.2292 127.986 2 43 -12.0390 128.083 TC 50 988 2 209
1975334S11128 1976 142 SI WA JOAN 1975-12-01 15:00:00 TS -12.2043 127.965 main 204 199 P_____P__PP_P_ SH041976 -12.2575 127.950 45 0 -12.1721 127.931 30 45 989 -12.1500 127.950 TC 50 988 -12.2812 127.958 2 44 -12.1075 128.050 TC 50 988 2 214
1975334S11128 1976 142 SI WA JOAN 1975-12-01 16:00:00 TS -12.2309 127.946 45 989 bom main 199 189 P_____O__PP_P_ SH041976 -12.2696 127.933 45 0 -12.2000 127.900 30 45 989 3.00000 -12.2025 127.933 TC 50 988 -12.3049 127.944 2 44 -12.1388 128.033 TC 50 988 2 202
1975334S11128 1976 142 SI WA JOAN 1975-12-01 18:00:00 TS -12.2861 127.920 main 189 189 O_____P__OP_O_ jtwc_sh SH041976 -12.3000 127.900 45 0 -12.2667 127.902 30 48 988 -12.3000 127.900 TC 50 988 -12.3500 127.915 2 46 -12.2000 128.000 TC 50 988 2 208
1975334S11128 1976 142 SI WA JOAN 1975-12-01 19:00:00 TS -12.3166 127.906 50 988 bom main 189 179 P_____O__PP_P_ SH041976 -12.3276 127.883 45 0 -12.3000 127.900 30 50 988 3.50000 -12.3390 127.886 TC 50 988 -12.3723 127.899 2 46 -12.2333 127.983 TC 50 988 2 213
1975334S11128 1976 142 SI WA JOAN 1975-12-01 21:00:00 TS -12.3796 127.867 main 179 179 P_____P__PP_P_ SH041976 -12.3925 127.850 47 0 -12.3667 127.831 30 50 988 -12.4075 127.857 TC 50 988 -12.4187 127.864 2 47 -12.3000 127.950 TC 50 988 2 212
1975334S11128 1976 142 SI WA JOAN 1975-12-01 22:00:00 TS -12.4120 127.848 50 988 bom main 174 164 P_____O__PP_P_ SH041976 -12.4279 127.833 48 0 -12.4000 127.800 30 50 988 3.50000 -12.4388 127.841 TC 50 988 -12.4438 127.845 2 47 -12.3333 127.933 TC 50 988 2 209
1975334S11128 1976 142 SI WA JOAN 1975-12-02 00:00:00 TS -12.4778 127.817 main 164 164 O_____P__OO_O_ jtwc_sh SH041976 -12.5000 127.800 50 0 -12.4667 127.802 30 50 988 -12.5000 127.800 TC 50 988 -12.5000 127.800 2 49 -12.4000 127.900 TC 50 988 2 200
1975334S11128 1976 142 SI WA JOAN 1975-12-02 01:00:00 TS -12.5101 127.802 50 988 bom main 164 154 P_____O__PP_P_ SH041976 -12.5307 127.789 50 0 -12.5000 127.800 30 50 988 3.50000 3.50000 -12.5333 127.772 TC 50 987 -12.5350 127.777 2 50 -12.4307 127.886 TC 50 987 2 209
1975334S11128 1976 142 SI WA JOAN 1975-12-02 03:00:00 TS -12.5758 127.760 main 154 149 P_____P__PP_P_ SH041976 -12.5925 127.765 52 0 -12.5667 127.739 30 50 986 -12.6000 127.708 TC 52 986 -12.6106 127.727 2 52 -12.4925 127.857 TC 52 986 2 213
1975334S11128 1976 142 SI WA JOAN 1975-12-02 04:00:00 TS -12.6101 127.735 50 986 bom main 149 139 P_____O__PP_P_ SH041976 -12.6254 127.749 53 0 -12.6000 127.700 30 50 986 3.50000 -12.6333 127.672 TC 53 985 -12.6508 127.699 2 53 -12.5254 127.841 TC 53 986 3 215
1975334S11128 1976 142 SI WA JOAN 1975-12-02 06:00:00 TS -12.6836 127.678 main 139 139 O_____P__OP_O_ jtwc_sh SH041976 -12.7000 127.700 55 0 -12.6667 127.633 30 53 984 -12.7000 127.600 TC 55 984 -12.7350 127.637 2 55 -12.6000 127.800 TC 55 985 3 217
1975334S11128 1976 142 SI WA JOAN 1975-12-02 07:00:00 TS -12.7245 127.646 55 984 bom main 134 124 P_____O__PP_P_ SH041976 -12.7469 127.661 55 0 -12.7000 127.600 30 55 984 4.00000 -12.7307 127.569 TC 55 983 -12.7784 127.604 2 56 -12.6443 127.778 TC 55 984 3 219
1975334S11128 1976 142 SI WA JOAN 1975-12-02 09:00:00 TS -12.8101 127.570 main 124 120 P_____P__PP_P_ SH041976 -12.8500 127.565 57 0 -12.7588 127.533 30 55 982 -12.7925 127.507 TC 57 982 -12.8668 127.530 2 58 -12.7425 127.722 TC 57 983 3 220
1975334S11128 1976 142 SI WA JOAN 1975-12-02 10:00:00 TS -12.8561 127.529 55 982 bom main 109 105 P_____O__PP_P_ SH041976 -12.9025 127.511 58 0 -12.8000 127.500 30 55 982 4.00000 -12.8254 127.475 TC 58 981 -12.9114 127.489 2 59 -12.7945 127.688 TC 58 982 4 221
1975334S11128 1976 142 SI WA JOAN 1975-12-02 12:00:00 TS -12.9560 127.440 main 95 95 O_____P__OO_O_ jtwc_sh SH041976 -13.0000 127.400 60 0 -12.9358 127.441 30 58 980 -12.9000 127.400 TC 60 980 -13.0000 127.400 2 62 -12.9000 127.600 TC 60 981 4 222
1975334S11128 1976 142 SI WA JOAN 1975-12-02 13:00:00 TS -13.0023 127.394 60 980 bom main 95 81 P_____O__PP_P_ SH041976 -13.0364 127.353 60 0 -13.0000 127.400 30 60 980 4.00000 -12.9443 127.358 TC 60 979 -13.0441 127.353 2 62 -12.9526 127.545 TC 60 980 4 229
1975334S11128 1976 142 SI WA JOAN 1975-12-02 15:00:00 TS -13.0829 127.286 main 81 79 P_____P__PP_P_ SH041976 -13.1000 127.257 62 0 -13.0642 127.272 30 60 978 -13.0425 127.265 TC 62 978 -13.1331 127.251 2 63 -13.0575 127.415 TC 62 979 4 233
1975334S11128 1976 142 SI WA JOAN 1975-12-02 16:00:00 TS -13.1236 127.228 60 978 bom main 79 67 P_____O__PP_P_ SH041976 -13.1308 127.208 63 0 -13.1000 127.200 30 60 978 4.00000 -13.0946 127.213 TC 63 977 -13.1775 127.196 2 63 -13.1079 127.344 TC 63 978 4 232
1975334S11128 1976 142 SI WA JOAN 1975-12-02 18:00:00 TS -13.2168 127.108 main 67 55 O_____P__OP_O_ jtwc_sh SH041976 -13.2000 127.100 65 1 -13.2358 127.067 30 63 976 -13.2000 127.100 TC 65 976 -13.2650 127.080 2 65 -13.2000 127.200 TC 65 977 5 231
1975334S11128 1976 142 SI WA JOAN 1975-12-02 19:00:00 TS -13.2660 127.045 65 976 bom main 55 55 P_____O__PP_P_ SH041976 -13.2469 127.039 65 1 -13.3000 127.000 40 65 976 4.50000 -13.2552 127.039 TC 65 975 -13.3076 127.020 2 65 -13.2390 127.133 TC 65 976 5 234
1975334S11128 1976 142 SI WA JOAN 1975-12-02 21:00:00 TS -13.3557 126.914 main 44 44 P_____P__PP_P_ SH041976 -13.3500 126.908 67 1 -13.3721 126.867 40 68 974 -13.3650 126.908 TC 67 974 -13.3894 126.894 2 66 -13.3075 127.000 TC 67 975 5 236
1975334S11128 1976 142 SI WA JOAN 1975-12-02 22:00:00 TS -13.3979 126.847 70 974 bom main 46 35 P_____O__PP_P_ SH041976 -13.4025 126.839 68 1 -13.4000 126.800 40 70 974 4.50000 -13.4158 126.839 TC 68 974 -13.4281 126.830 2 66 -13.3388 126.933 TC 68 975 5 238
1975334S11128 1976 142 SI WA JOAN 1975-12-03 00:00:00 TS -13.4791 126.711 main 39 39 O_____P__OO_O_ jtwc_sh SH041976 -13.5000 126.700 70 1 -13.4746 126.667 40 70 973 -13.5000 126.700 TC 70 973 -13.5000 126.700 4 68 -13.4000 126.800 TC 70 974 5 239
1975334S11128 1976 142 SI WA JOAN 1975-12-03 01:00:00 TS -13.5125 126.648 70 973 bom main 46 39 P_____O__PP_P_ SH041976 -13.5417 126.633 70 1 -13.5000 126.600 40 70 973 4.50000 4.50000 -13.5281 126.633 TC 70 972 -13.5279 126.653 4 69 -13.4359 126.733 TC 70 973 4 245
1975334S11128 1976 142 SI WA JOAN 1975-12-03 03:00:00 TS -13.5628 126.521 main 44 44 P_____P__PP_P_ SH041976 -13.6150 126.500 72 1 -13.4975 126.467 40 73 972 -13.5650 126.500 TC 70 971 -13.5767 126.560 4 71 -13.5075 126.600 TC 72 972 4 248
1975334S11128 1976 142 SI WA JOAN 1975-12-03 04:00:00 TS -13.5852 126.457 75 972 bom main 44 44 P_____O__PP_P_ SH041976 -13.6467 126.433 73 1 -13.5000 126.400 40 75 972 4.50000 -13.5775 126.433 TC 70 971 -13.5989 126.511 4 72 -13.5412 126.533 TC 73 972 4 249
1975334S11128 1976 142 SI WA JOAN 1975-12-03 06:00:00 TS -13.6351 126.329 main 44 33 O_____P__OP_O_ jtwc_sh SH041976 -13.7000 126.300 75 1 -13.5691 126.267 40 75 970 -13.6000 126.300 TC 70 970 -13.6417 126.404 4 74 -13.6000 126.400 TC 75 971 4 249
1975334S11128 1976 142 SI WA JOAN 1975-12-03 07:00:00 TS -13.6552 126.271 75 970 bom main 33 33 P_____O__PP_P_ SH041976 -13.7171 126.249 75 1 -13.6000 126.200 40 75 970 4.50000 -13.6140 126.244 TC 70 969 -13.6635 126.343 4 75 -13.6197 126.341 TC 75 970 4 255
1975334S11128 1976 142 SI WA JOAN 1975-12-03 09:00:00 TS -13.6809 126.151 main 35 33 P_____P__PP_P_ SH041976 -13.7423 126.145 77 1 -13.5975 126.067 40 75 968 -13.6424 126.130 TC 72 968 -13.7109 126.197 4 77 -13.6499 126.222 TC 77 969 4 258
1975334S11128 1976 142 SI WA JOAN 1975-12-03 10:00:00 TS -13.6954 126.082 75 968 bom main 33 33 P_____O__PP_P_ SH041976 -13.7561 126.081 78 1 -13.6000 126.000 40 75 968 4.50000 -13.6587 126.065 TC 73 967 -13.7376 126.110 4 78 -13.6641 126.157 TC 78 968 5 255
1975334S11128 1976 142 SI WA JOAN 1975-12-03 12:00:00 TS -13.7435 125.914 main 39 31 O_____P__OO_O_ jtwc_sh SH041976 -13.8000 125.900 80 1 -13.6612 125.882 40 78 966 -13.7000 125.900 TC 75 966 -13.8000 125.900 4 81 -13.7000 126.000 TC 80 967 6 253
1975334S11128 1976 142 SI WA JOAN 1975-12-03 13:00:00 TS -13.7783 125.801 80 966 bom main 39 39 P_____O__PP_P_ SH041976 -13.8386 125.770 80 1 -13.7000 125.800 40 80 966 5.00000 -13.7250 125.797 TC 76 965 -13.8427 125.758 4 81 -13.7250 125.908 TC 80 966 8 253
1975334S11128 1976 142 SI WA JOAN 1975-12-03 15:00:00 TS -13.8560 125.523 main 46 46 P_____P__PP_P_ SH041976 -13.9351 125.453 82 1 -13.7588 125.552 40 80 963 -13.7849 125.552 TC 80 963 -13.9375 125.432 4 83 -13.7849 125.695 TC 82 964 9 254
1975334S11128 1976 142 SI WA JOAN 1975-12-03 16:00:00 TS -13.9011 125.365 80 963 bom main 49 49 P_____O__PP_P_ SH041976 -13.9892 125.274 83 2 -13.8000 125.400 40 80 963 5.00000 -13.8199 125.412 TC 81 962 -13.9883 125.254 4 83 -13.8199 125.573 TC 83 963 10 253
1975334S11128 1976 142 SI WA JOAN 1975-12-03 18:00:00 TS -14.0049 125.025 main 70 70 O_____P__OP_O_ jtwc_sh SH041976 -14.1000 124.900 85 2 -13.9358 125.072 40 83 960 -13.9000 125.100 TC 85 960 -14.0938 124.881 4 85 -13.9000 125.300 TC 85 962 11 253
1975334S11128 1976 142 SI WA JOAN 1975-12-03 19:00:00 TS -14.0573 124.847 85 960 bom main 70 70 P_____O__PP_P_ SH041976 -14.1527 124.709 85 2 -14.0000 124.900 40 85 960 5.00000 -13.9444 124.926 TC 85 959 -14.1473 124.690 4 86 -13.9469 125.148 TC 85 961 11 254
1975334S11128 1976 142 SI WA JOAN 1975-12-03 21:00:00 TS -14.1542 124.482 main 87 87 P_____P__PP_P_ SH041976 -14.2576 124.320 87 2 -14.0642 124.575 40 88 957 -14.0427 124.550 TC 87 957 -14.2531 124.314 4 87 -14.0501 124.815 TC 87 959 11 255
1975334S11128 1976 142 SI WA JOAN 1975-12-03 22:00:00 TS -14.2029 124.300 90 957 bom main 106 106 P_____O__PP_P_ SH041976 -14.3080 124.133 88 2 -14.1000 124.400 40 90 957 5.50000 -14.0947 124.359 TC 88 956 -14.3042 124.133 4 88 -14.1025 124.642 TC 88 958 11 254
1975334S11128 1976 142 SI WA JOAN 1975-12-04 00:00:00 TS -14.3060 123.948 main 139 139 O_____P__OO_O_ jtwc_sh SH041976 -14.4000 123.800 90 2 -14.2358 123.990 40 90 954 -14.2000 124.000 TC 90 954 -14.4000 123.800 4 90 -14.2000 124.300 TC 90 956 10 253
1975334S11128 1976 142 SI WA JOAN 1975-12-04 01:00:00 TS -14.3494 123.799 90 954 bom main 147 139 P_____O__PP_P_ SH041976 -14.4389 123.671 90 2 -14.3000 123.800 40 90 954 5.50000 5.50000 -14.2526 123.842 TC 90 953 -14.4299 123.672 4 90 -14.2364 124.136 TC 91 955 8 254
1975334S11128 1976 142 SI WA JOAN 1975-12-04 03:00:00 TS -14.4209 123.543 main 165 165 P_____P__PP_P_ SH041976 -14.5073 123.462 92 2 -14.3721 123.515 40 90 952 -14.3574 123.555 TC 92 952 -14.4811 123.443 4 91 -14.3000 123.820 TC 95 953 7 254
1975334S11128 1976 142 SI WA JOAN 1975-12-04 04:00:00 TS -14.4534 123.430 90 952 bom main 163 163 P_____O__PP_P_ SH041976 -14.5386 123.373 93 2 -14.4000 123.400 40 90 952 5.50000 -14.4078 123.427 TC 93 952 -14.5048 123.339 4 91 -14.3309 123.671 TC 96 952 7 252
1975334S11128 1976 142 SI WA JOAN 1975-12-04 06:00:00 TS -14.5201 123.224 main 178 178 O_____P__OP_O_ jtwc_sh SH041976 -14.6000 123.200 95 2 -14.4666 123.195 40 90 951 -14.5000 123.200 TC 95 951 -14.5541 123.146 4 93 -14.4000 123.400 TC 100 951 6 252
1975334S11128 1976 142 SI WA JOAN 1975-12-04 07:00:00 TS -14.5492 123.125 90 951 bom main 186 178 P_____O__PP_P_ SH041976 -14.6228 123.103 95 2 -14.5000 123.100 40 90 951 5.50000 -14.5285 123.105 TC 95 950 -14.5820 123.055 4 93 -14.4390 123.283 TC 100 950 6 252
1975334S11128 1976 142 SI WA JOAN 1975-12-04 09:00:00 TS -14.6089 122.934 main 196 196 P_____P__PP_P_ SH041976 -14.6699 122.907 95 2 -14.5588 122.892 40 90 949 -14.5773 122.942 TC 95 949 -14.6500 122.877 4 94 -14.5274 123.077 TC 100 949 6 250
1975334S11128 1976 142 SI WA JOAN 1975-12-04 10:00:00 TS -14.6469 122.842 90 949 bom main 203 193 P_____O__PP_P_ SH041976 -14.7017 122.808 95 2 -14.6000 122.800 40 90 949 5.50000 -14.6070 122.866 TC 95 949 -14.6925 122.787 4 94 -14.5787 122.984 TC 100 949 6 241
1975334S11128 1976 142 SI WA JOAN 1975-12-04 12:00:00 TS -14.7533 122.662 main 189 189 O_____P__OO_O_ jtwc_sh SH041976 -14.8000 122.600 95 2 -14.7200 122.669 40 90 948 -14.7000 122.700 TC 95 948 -14.8000 122.600 4 96 -14.7000 122.800 TC 100 948 7 236
1975334S11128 1976 142 SI WA JOAN 1975-12-04 13:00:00 TS -14.8310 122.561 90 948 bom main 192 176 P_____O__PP_P_ SH041976 -14.8772 122.489 95 2 -14.8000 122.600 40 90 948 5.50000 -14.7772 122.597 TC 95 947 -14.8855 122.488 4 96 -14.7693 122.703 TC 100 947 8 229
1975334S11128 1976 142 SI WA JOAN 1975-12-04 15:00:00 TS -15.0192 122.344 main 179 169 P_____P__PP_P_ SH041976 -15.0700 122.258 97 3 -14.9946 122.413 40 93 946 -14.9700 122.373 TC 97 946 -15.0831 122.257 4 97 -14.9274 122.507 TC 102 947 9 228
1975334S11128 1976 142 SI WA JOAN 1975-12-04 16:00:00 TS -15.1234 122.229 95 946 bom main 173 159 P_____O__PP_P_ SH041976 -15.1783 122.139 98 3 -15.1000 122.300 40 95 946 5.50000 -15.0782 122.252 TC 98 946 -15.1911 122.139 4 97 -15.0145 122.408 TC 103 946 9 227
1975334S11128 1976 142 SI WA JOAN 1975-12-04 18:00:00 TS -15.3358 121.990 main 165 156 O_____P__OP_O_ jtwc_sh SH041976 -15.4000 121.900 100 3 -15.3000 122.039 40 95 945 -15.3000 122.000 TC 100 945 -15.4151 121.901 4 98 -15.2000 122.200 TC 105 946 10 227
1975334S11128 1976 142 SI WA JOAN 1975-12-04 19:00:00 TS -15.4443 121.867 95 945 bom main 163 162 P_____O__PP_P_ SH041976 -15.5131 121.781 100 3 -15.4000 121.900 40 95 945 5.50000 -15.4105 121.867 TC 100 944 -15.5268 121.782 4 98 -15.3021 122.089 TC 105 945 10 228
1975334S11128 1976 142 SI WA JOAN 1975-12-04 21:00:00 TS -15.6599 121.619 main 162 162 P_____P__PP_P_ SH041976 -15.7375 121.543 100 3 -15.6000 121.633 40 98 943 -15.6300 121.593 TC 100 943 -15.7394 121.545 4 99 -15.5150 121.858 TC 105 944 10 228
1975334S11128 1976 142 SI WA JOAN 1975-12-04 22:00:00 TS -15.7608 121.496 100 943 bom main 162 162 P_____O__PP_P_ SH041976 -15.8395 121.426 100 3 -15.7000 121.500 40 100 943 6.00000 -15.7316 121.456 TC 100 943 -15.8361 121.428 4 100 -15.6182 121.739 TC 105 944 9 232
1975334S11128 1976 142 SI WA JOAN 1975-12-05 00:00:00 TS -15.9373 121.254 main 170 170 O_____P__OO_O_ jtwc_sh SH041976 -16.0000 121.200 100 3 -15.9237 121.225 40 100 942 -15.9000 121.200 TC 100 942 -16.0000 121.200 4 101 -15.8000 121.500 TC 105 943 8 235
1975334S11128 1976 142 SI WA JOAN 1975-12-05 01:00:00 TS -15.9953 121.141 100 942 bom main 177 177 P_____O__PP_P_ SH041976 -16.0452 121.094 100 3 -16.0000 121.100 40 100 942 6.00000 6.00000 -15.9587 121.086 TC 100 941 -16.0501 121.093 4 101 -15.8724 121.378 TC 105 942 7 249
1975334S11128 1976 142 SI WA JOAN 1975-12-05 03:00:00 TS -16.0550 120.929 main 186 186 P_____P__PP_P_ SH041976 -16.0874 120.892 102 3 -16.0084 120.895 40 100 940 -16.0374 120.877 TC 102 940 -16.1216 120.885 4 102 -15.9875 121.135 TC 107 941 6 256
1975334S11128 1976 142 SI WA JOAN 1975-12-05 04:00:00 TS -16.0713 120.828 100 940 bom main 195 195 P_____O__PP_P_ SH041976 -16.0938 120.794 103 3 -16.0000 120.800 40 100 940 6.00000 -16.0629 120.781 TC 103 940 -16.1454 120.783 4 102 -16.0321 121.017 TC 108 941 6 260
1975334S11128 1976 142 SI WA JOAN 1975-12-05 06:00:00 TS -16.1073 120.631 main 212 212 O_____P__OP_O_ jtwc_sh SH041976 -16.1000 120.600 105 3 -16.0691 120.600 40 100 939 -16.1000 120.600 TC 105 939 -16.1747 120.584 4 103 -16.1000 120.800 TC 110 940 6 259
1975334S11128 1976 142 SI WA JOAN 1975-12-05 07:00:00 TS -16.1277 120.535 100 939 bom main 222 222 P_____O__PP_P_ SH041976 -16.1166 120.500 105 3 -16.1000 120.500 40 100 939 6.00000 -16.1223 120.514 TC 105 938 -16.1825 120.486 4 103 -16.1280 120.708 TC 110 939 6 261
1975334S11128 1976 142 SI WA JOAN 1975-12-05 09:00:00 TS -16.1517 120.346 main 235 235 P_____P__PP_P_ SH041976 -16.1500 120.300 105 3 -16.0975 120.292 40 103 938 -16.1574 120.350 TC 105 937 -16.1904 120.291 4 104 -16.1649 120.542 TC 112 938 5 263
1975334S11128 1976 142 SI WA JOAN 1975-12-05 10:00:00 TS -16.1626 120.255 105 938 bom main 235 235 P_____O__PP_P_ SH041976 -16.1666 120.200 105 3 -16.1000 120.200 40 105 938 6.00000 -16.1720 120.269 TC 105 937 -16.1927 120.194 4 105 -16.1774 120.464 TC 113 938 5 260
1975334S11128 1976 142 SI WA JOAN 1975-12-05 12:00:00 TS -16.1949 120.078 main 255 255 O_____P__OO_O_ jtwc_sh SH041976 -16.2000 120.000 105 3 -16.1691 120.069 40 105 936 -16.2000 120.100 TC 105 936 -16.2000 120.000 4 106 -16.2000 120.300 TC 115 937 5 259
1975334S11128 1976 142 SI WA JOAN 1975-12-05 13:00:00 TS -16.2137 119.984 105 936 bom main 264 264 P_____O__PP_P_ SH041976 -16.2166 119.900 105 3 -16.2000 120.000 40 105 936 6.00000 -16.2167 120.006 TC 105 935 -16.2154 119.895 4 106 -16.2167 120.206 TC 115 936 6 261
1975334S11128 1976 142 SI WA JOAN 1975-12-05 15:00:00 TS -16.2406 119.784 main 283 283 P_____P__PP_P_ SH041976 -16.2500 119.700 107 3 -16.1975 119.805 40 105 935 -16.2500 119.807 TC 107 934 -16.2460 119.684 4 107 -16.2500 120.007 TC 115 935 6 262
1975334S11128 1976 142 SI WA JOAN 1975-12-05 16:00:00 TS -16.2546 119.682 105 935 bom main 288 288 P_____O__PP_P_ SH041976 -16.2666 119.600 108 3 -16.2000 119.700 40 105 935 6.00000 -16.2667 119.705 TC 108 934 -16.2613 119.578 4 107 -16.2667 119.905 TC 115 935 6 260
1975334S11128 1976 142 SI WA JOAN 1975-12-05 18:00:00 TS -16.2936 119.478 main 308 308 O_____P__OP_O_ jtwc_sh SH041976 -16.3000 119.400 110 3 -16.2691 119.500 40 105 933 -16.3000 119.500 TC 110 933 -16.2926 119.370 4 109 -16.3000 119.700 TC 115 934 6 259
1975334S11128 1976 142 SI WA JOAN 1975-12-05 19:00:00 TS -16.3126 119.376 105 933 bom main 318 318 P_____O__PP_P_ SH041976 -16.3167 119.297 110 3 -16.3000 119.400 40 105 933 6.00000 -16.3167 119.395 TC 110 932 -16.3088 119.268 4 109 -16.3167 119.597 TC 115 933 6 261
1975334S11128 1976 142 SI WA JOAN 1975-12-05 21:00:00 TS -16.3401 119.172 main 338 338 P_____P__PP_P_ SH041976 -16.3500 119.092 110 3 -16.2975 119.200 40 108 931 -16.3500 119.185 TC 112 931 -16.3429 119.071 4 110 -16.3500 119.392 TC 117 932 6 262
1975334S11128 1976 142 SI WA JOAN 1975-12-05 22:00:00 TS -16.3546 119.073 110 931 bom main 345 345 P_____O__PP_P_ SH041976 -16.3667 118.992 110 3 -16.3000 119.100 40 110 931 6.50000 -16.3667 119.084 TC 113 930 -16.3610 118.977 4 110 -16.3667 119.292 TC 118 931 6 259
1975334S11128 1976 142 SI WA JOAN 1975-12-06 00:00:00 TS -16.3949 118.882 main 365 365 O_____P__OO_O_ jtwc_sh SH041976 -16.4000 118.800 110 3 -16.3691 118.892 40 110 929 -16.4000 118.900 TC 115 929 -16.4000 118.800 4 112 -16.4000 119.100 TC 120 930 6 258
1975334S11128 1976 142 SI WA JOAN 1975-12-06 01:00:00 TS -16.4126 118.792 110 929 bom main 375 375 P_____O__PP_P_ SH041976 -16.4140 118.706 110 3 -16.4000 118.800 40 110 929 6.50000 6.50000 -16.4166 118.822 TC 115 928 -16.4142 118.711 4 112 -16.4166 119.008 TC 120 929 5 260
1975334S11128 1976 142 SI WA JOAN 1975-12-06 03:00:00 TS -16.4376 118.630 main 395 395 P_____P__PP_P_ SH041976 -16.4425 118.527 112 3 -16.3975 118.661 40 110 928 -16.4499 118.685 TC 115 927 -16.4434 118.543 4 114 -16.4500 118.835 TC 122 928 5 260
1975334S11128 1976 142 SI WA JOAN 1975-12-06 04:00:00 TS -16.4517 118.555 110 928 bom main 391 391 P_____O__PP_P_ SH041976 -16.4588 118.445 113 4 -16.4000 118.600 40 110 928 6.50000 -16.4666 118.622 TC 115 927 -16.4594 118.464 4 114 -16.4666 118.753 TC 123 928 4 255
1975334S11128 1976 142 SI WA JOAN 1975-12-06 06:00:00 TS -16.4944 118.414 main 409 409 O_____P__OP_O_ jtwc_sh SH041976 -16.5000 118.300 115 4 -16.4691 118.467 40 110 926 -16.5000 118.500 TC 115 926 -16.4974 118.317 4 116 -16.5000 118.600 TC 125 927 4 253
1975334S11128 1976 142 SI WA JOAN 1975-12-06 07:00:00 TS -16.5156 118.345 110 926 bom main 411 411 P_____O__PP_P_ SH041976 -16.5250 118.233 115 4 -16.5000 118.400 40 110 926 6.50000 -16.5114 118.428 TC 115 925 -16.5205 118.251 4 117 -16.5114 118.522 TC 125 926 4 253
1975334S11128 1976 142 SI WA JOAN 1975-12-06 09:00:00 TS -16.5525 118.217 main 402 402 P_____P__PP_P_ SH041976 -16.5850 118.120 117 4 -16.4975 118.267 40 110 925 -16.5350 118.285 TC 117 924 -16.5778 118.133 4 118 -16.5350 118.377 TC 125 925 4 251
1975334S11128 1976 142 SI WA JOAN 1975-12-06 10:00:00 TS -16.5758 118.160 110 925 bom main 402 402 P_____O__PP_P_ SH041976 -16.6200 118.073 118 4 -16.5000 118.200 40 110 925 6.50000 -16.5509 118.218 TC 118 924 -16.6131 118.083 4 119 -16.5509 118.312 TC 125 925 4 240
1975334S11128 1976 142 SI WA JOAN 1975-12-06 12:00:00 TS -16.6422 118.058 main 405 397 O_____P__OO_O_ jtwc_sh SH041976 -16.7000 118.000 120 4 -16.5533 118.051 40 110 923 -16.6000 118.100 TC 120 923 -16.7000 118.000 4 121 -16.6000 118.200 TC 125 924 3 232
1975334S11128 1976 142 SI WA JOAN 1975-12-06 13:00:00 TS -16.6809 118.017 110 923 bom main 397 387 P_____O__PP_P_ SH041976 -16.7364 117.969 120 4 -16.6000 118.000 40 110 923 6.50000 -16.6307 118.050 TC 120 922 -16.7487 117.966 4 121 -16.6333 118.150 TC 125 923 3 214
1975334S11128 1976 142 SI WA JOAN 1975-12-06 15:00:00 TS -16.7770 117.968 main 387 387 P_____P__PP_P_ SH041976 -16.8200 117.927 122 4 -16.7279 117.997 40 110 921 -16.7125 117.970 TC 120 921 -16.8615 117.917 4 121 -16.7200 118.070 TC 127 922 3 204
1975334S11128 1976 142 SI WA JOAN 1975-12-06 16:00:00 TS -16.8343 117.952 110 921 bom main 387 369 P_____O__PP_P_ SH041976 -16.8709 117.915 123 4 -16.8000 118.000 40 110 921 6.50000 -16.7654 117.940 TC 120 920 -16.9253 117.900 4 121 -16.7733 118.040 TC 128 921 4 193
1975334S11128 1976 142 SI WA JOAN 1975-12-06 18:00:00 TS -16.9655 117.919 main 369 369 O_____P__OP_O_ jtwc_sh SH041976 -17.0000 117.900 125 4 -16.9254 117.931 40 110 919 -16.9000 117.900 TC 120 919 -17.0674 117.882 4 122 -16.9000 118.000 TC 130 920 4 193
1975334S11128 1976 142 SI WA JOAN 1975-12-06 19:00:00 TS -17.0421 117.907 110 919 bom main 369 348 P_____O__PP_P_ SH041976 -17.0802 117.894 125 4 -17.0000 117.900 40 110 919 6.50000 -16.9802 117.886 TC 120 918 -17.1454 117.879 4 122 -16.9667 117.986 TC 130 919 5 0
1975334S11128 1976 142 SI WA JOAN 1975-12-06 21:00:00 TS -17.2232 117.903 main 348 337 P_____P__PP_P_ SH041976 -17.2700 117.892 125 4 -17.1946 117.895 40 110 917 -17.1700 117.878 TC 122 917 -17.3146 117.882 4 123 -17.1200 117.978 TC 132 918 6 186
1975334S11128 1976 142 SI WA JOAN 1975-12-06 22:00:00 TS -17.3233 117.906 110 917 bom main 337 317 P_____O__PP_P_ SH041976 -17.3758 117.895 125 4 -17.3000 117.900 40 110 917 6.50000 -17.2758 117.881 TC 123 916 -17.4057 117.887 4 123 -17.2067 117.981 TC 133 917 6 0
1975334S11128 1976 142 SI WA JOAN 1975-12-07 00:00:00 TS -17.5333 117.917 main 317 306 O_____P__OO_O_ jtwc_sh SH041976 -17.6000 117.900 125 4 -17.5000 117.900 40 113 915 -17.5000 117.900 TC 125 915 -17.6000 117.900 4 124 -17.4000 118.000 TC 135 916 6 175
1975334S11128 1976 142 SI WA JOAN 1975-12-07 01:00:00 TS -17.6386 117.921 115 915 bom main 306 286 P_____O__PP_P_ SH041976 -17.7110 117.897 125 4 -17.6000 117.900 40 115 915 7.00000 7.00000 -17.6083 117.914 TC 125 915 -17.6962 117.902 4 124 -17.5053 118.014 TC 135 915 7 0
1975334S11128 1976 142 SI WA JOAN 1975-12-07 03:00:00 TS -17.8582 117.931 main 276 266 P_____P__PP_P_ SH041976 -17.9425 117.893 125 4 -17.7921 117.892 40 115 915 -17.8350 117.950 TC 125 915 -17.9019 117.911 4 124 -17.7350 118.050 TC 135 915 7 177
1975334S11128 1976 142 SI WA JOAN 1975-12-07 04:00:00 TS -17.9738 117.940 115 915 bom main 266 241 P_____O__PP_P_ SH041976 -18.0612 117.892 125 4 -17.9000 117.900 40 115 915 7.00000 -17.9533 117.969 TC 125 915 -18.0109 117.917 4 124 -17.8558 118.069 TC 135 915 7 174
1975334S11128 1976 142 SI WA JOAN 1975-12-07 06:00:00 TS -18.2169 117.967 main 241 232 O_____P__OP_O_ jtwc_sh SH041976 -18.3000 117.900 125 4 -18.1612 117.969 40 115 915 -18.2000 118.000 TC 125 915 -18.2400 117.935 4 124 -18.1000 118.100 TC 135 915 7 175
1975334S11128 1976 142 SI WA JOAN 1975-12-07 07:00:00 TS -18.3374 117.979 115 915 bom main 232 201 P_____O__PP_P_ SH041976 -18.4114 117.911 125 4 -18.3000 118.000 40 115 915 7.00000 -18.3276 118.003 TC 125 915 -18.3597 117.945 4 124 -18.2140 118.103 TC 135 915 7 0
1975334S11128 1976 142 SI WA JOAN 1975-12-07 09:00:00 TS -18.5800 117.993 main 201 190 P_____P__PP_P_ SH041976 -18.6350 117.942 125 4 -18.5667 118.005 40 115 915 -18.5925 118.000 TC 125 915 -18.6082 117.967 4 124 -18.4425 118.100 TC 135 915 7 178
1975334S11128 1976 142 SI WA JOAN 1975-12-07 10:00:00 TS -18.7041 117.999 115 915 bom main 190 168 P_____O__PP_P_ SH041976 -18.7509 117.961 125 4 -18.7000 118.000 40 115 915 7.00000 -18.7279 117.998 TC 125 915 -18.7364 117.978 4 124 -18.5588 118.098 TC 135 915 8 177
1975334S11128 1976 142 SI WA JOAN 1975-12-07 12:00:00 TS -18.9611 118.017 main 156 145 O_____P__OO_O_ jtwc_sh SH041976 -19.0000 118.000 125 4 -18.9667 118.000 40 115 915 -19.0000 118.000 TC 125 915 -19.0000 118.000 4 124 -18.8000 118.100 TC 135 915 8 175
1975334S11128 1976 142 SI WA JOAN 1975-12-07 13:00:00 TS -19.0964 118.030 115 915 bom main 145 111 P_____O__PP_P_ SH041976 -19.1412 118.019 124 4 -19.1000 118.000 40 115 915 7.00000 -19.1333 118.014 TC 125 915 -19.1378 118.016 4 122 -18.9250 118.114 TC 135 915 8 176
1975334S11128 1976 142 SI WA JOAN 1975-12-07 15:00:00 TS -19.3767 118.059 main 111 100 P_____P__PP_P_ SH041976 -19.4425 118.057 122 4 -19.3667 117.992 40 115 915 -19.4000 118.050 TC 125 915 -19.4237 118.049 4 120 -19.1850 118.150 TC 135 915 9 176
1975334S11128 1976 142 SI WA JOAN 1975-12-07 16:00:00 TS -19.5196 118.075 115 915 bom main 100 67 P_____O__PP_P_ SH041976 -19.5970 118.075 121 4 -19.5000 118.000 40 115 915 7.00000 -19.5333 118.069 TC 125 915 -19.5701 118.065 4 119 -19.3200 118.169 TC 135 915 9 174
1975334S11128 1976 142 SI WA JOAN 1975-12-07 18:00:00 TS -19.8040 118.111 main 67 55 O_____P__OP_O_ jtwc_sh SH041976 -19.9000 118.100 120 4 -19.7588 118.069 40 115 915 -19.8000 118.100 TC 125 915 -19.8650 118.094 4 117 -19.6000 118.200 TC 135 915 9 175
1975334S11128 1976 142 SI WA JOAN 1975-12-07 19:00:00 TS -19.9476 118.124 115 915 bom main 55 22 P_____O__PP_P_ SH041976 -20.0443 118.111 118 4 -19.9000 118.100 40 115 915 7.00000 -19.9359 118.111 TC 122 918 -20.0116 118.106 4 116 -19.7495 118.208 TC 125 915 9 178
1975334S11128 1976 142 SI WA JOAN 1975-12-07 21:00:00 TS -20.2297 118.134 main 22 0 P_____P__PP_P_ SH041976 -20.3225 118.122 115 4 -20.1696 118.104 40 115 915 -20.2075 118.122 TC 117 925 -20.2987 118.118 4 114 -20.0575 118.215 TC 107 916 9 0
1975334S11128 1976 142 SI WA JOAN 1975-12-07 22:00:00 TS -20.3830 118.132 115 915 bom main 0 0 P_____O__PP_P_ SH041976 -20.4546 118.121 113 4 -20.4000 118.100 40 115 915 7.00000 -20.3412 118.121 TC 115 928 -20.4373 118.117 4 113 -20.2104 118.213 TC 98 916 9 0
1975334S11128 1976 142 SI WA JOAN 1975-12-07 22:20:00 TS -20.4372 118.131 115 bom main 0 0 P_____I__PP_P_ SH041976 -20.4973 118.120 112 3 -20.5000 118.100 40 115 915 7.00000 -20.3853 118.119 TC 114 929 -20.4826 118.116 4 112 -20.2605 118.212 TC 95 916 8 0
1975334S11128 1976 142 SI WA JOAN 1975-12-07 23:00:00 TS -20.5107 118.127 115 917 bom main 0 0 P_____O__PP_P_ SH041976 -20.5807 118.114 111 3 -20.5000 118.100 40 115 917 7.00000 -20.4724 118.114 TC 112 931 -20.5714 118.112 4 112 -20.3588 118.208 TC 89 916 7 0
1975334S11128 1976 142 SI WA JOAN 1975-12-08 00:00:00 TS -20.6364 118.117 main 0 0 O_____P__OO_O_ jtwc_sh SH041976 -20.7000 118.100 110 3 -20.6186 118.103 40 110 926 -20.6000 118.100 TC 110 935 -20.7000 118.100 4 111 -20.5000 118.200 TC 80 917 8 0
1975334S11128 1976 142 SI WA JOAN 1975-12-08 01:00:00 TS -20.7653 118.102 105 935 bom main 0 0 P_____O__PP_P_ SH041976 -20.8114 118.081 107 3 -20.8000 118.100 40 105 935 3 -20.7250 118.078 TC 105 938 -20.8131 118.079 4 108 -20.6307 118.192 TC 75 922 7 191
1975334S11128 1976 142 SI WA JOAN 1975-12-08 03:00:00 TS -20.9835 118.047 main 0 0 P_____P__PP_P_ SH041976 -21.0150 118.022 102 3 -21.0099 118.040 40 94 943 -20.9650 118.015 TC 97 946 -21.0238 118.018 4 103 -20.8725 118.165 TC 67 933 7 193
1975334S11128 1976 142 SI WA JOAN 1975-12-08 04:00:00 TS -21.0851 118.013 90 947 bom main 0 0 P_____O__PP_P_ SH041976 -21.1109 117.985 100 3 -21.1000 118.000 40 90 947 -21.0800 117.978 TC 93 949 -21.1233 117.981 4 101 -20.9854 118.147 TC 63 938 6 199
1975334S11128 1976 142 SI WA JOAN 1975-12-08 06:00:00 TS -21.2858 117.938 main 0 0 O_____P__OP_O_ jtwc_sh SH041976 -21.3000 117.900 95 2 -21.3000 117.933 40 83 953 -21.3000 117.900 TC 85 957 -21.3151 117.895 4 96 -21.2000 118.100 TC 55 949 6 199
1975334S11128 1976 142 SI WA JOAN 1975-12-08 07:00:00 TS -21.3850 117.899 80 957 bom main 0 0 P_____O__PP_P_ SH041976 -21.3974 117.853 92 2 -21.4000 117.900 40 80 957 -21.4031 117.867 TC 82 959 -21.4092 117.848 4 93 -21.3031 118.075 TC 53 951 6 201
1975334S11128 1976 142 SI WA JOAN 1975-12-08 09:00:00 TS -21.5806 117.816 main 0 0 P_____P__PP_P_ SH041976 -21.5925 117.750 87 2 -21.6000 117.833 40 73 962 -21.6000 117.800 TC 77 964 -21.5988 117.749 4 88 -21.5000 118.015 TC 50 957 6 202
1975334S11128 1976 142 SI WA JOAN 1975-12-08 10:00:00 TS -21.6792 117.773 70 965 bom main 0 0 P_____O__PP_P_ SH041976 -21.6921 117.698 85 2 -21.7000 117.800 40 70 965 -21.6975 117.767 TC 75 966 -21.6960 117.699 4 86 -21.5975 117.980 TC 48 960 7 202
1975334S11128 1976 142 SI WA JOAN 1975-12-08 12:00:00 TS -21.8833 117.689 main 0 0 O_____P__OO_O_ jtwc_sh SH041976 -21.9000 117.600 80 1 -21.9000 117.733 40 63 969 -21.9000 117.700 TC 70 971 -21.9000 117.600 4 81 -21.8000 117.900 TC 45 966 7 200
1975334S11128 1976 142 SI WA JOAN 1975-12-08 13:00:00 TS -21.9927 117.652 60 971 bom main 0 0 P_____O__PP_P_ SH041976 -22.0083 117.564 77 1 -22.0000 117.700 30 60 971 -22.0109 117.669 TC 68 972 -22.0174 117.555 4 78 -21.9109 117.858 TC 43 967 7 198
1975334S11128 1976 142 SI WA JOAN 1975-12-08 15:00:00 TS -22.2181 117.579 main 0 0 P_____P__PP_P_ SH041976 -22.2350 117.500 72 1 -22.1921 117.641 30 53 974 -22.2425 117.607 TC 65 976 -22.2616 117.463 4 73 -22.1425 117.765 TC 40 971 7 197
1975334S11128 1976 142 SI WA JOAN 1975-12-08 16:00:00 TS -22.3360 117.541 50 976 bom main 0 0 P_____O__PP_P_ SH041976 -22.3533 117.469 70 1 -22.3000 117.600 30 50 976 -22.3612 117.574 TC 63 977 -22.3872 117.417 4 70 -22.2612 117.713 TC 38 973 8 198
1975334S11128 1976 142 SI WA JOAN 1975-12-08 18:00:00 TS -22.5840 117.450 main 0 0 O_____P__OP_O_ jtwc_sh SH041976 -22.6000 117.400 65 1 -22.5612 117.472 30 46 979 -22.6000 117.500 TC 60 981 -22.6425 117.328 4 65 -22.5000 117.600 TC 35 977 8 200
1975334S11128 1976 142 SI WA JOAN 1975-12-08 19:00:00 TS -22.7104 117.396 45 981 bom main 0 0 P_____O__PP_P_ SH041976 -22.7329 117.351 62 0 -22.7000 117.400 30 45 981 -22.7114 117.456 TC 59 981 -22.7711 117.285 4 62 -22.6141 117.534 TC 35 977 8 202
1975334S11128 1976 142 SI WA JOAN 1975-12-08 21:00:00 TS -22.9657 117.282 main 0 0 P_____P__PP_P_ SH041976 -23.0075 117.243 57 0 -22.9746 117.251 30 41 982 -22.9350 117.357 TC 57 983 -23.0272 117.204 4 57 -22.8425 117.393 TC 35 980 8 202
1975334S11128 1976 142 SI WA JOAN 1975-12-08 22:00:00 TS -23.0918 117.229 40 983 bom main 0 0 P_____O__PP_P_ SH041976 -23.1437 117.190 55 0 -23.1000 117.200 30 40 983 -23.0509 117.305 TC 56 983 -23.1536 117.166 4 54 -22.9588 117.323 TC 35 980 8 198
1975334S11128 1976 142 SI WA JOAN 1975-12-09 00:00:00 TS -23.3316 117.151 main 0 0 O_____P__OO_O_ jtwc_sh SH041976 -23.4000 117.100 50 0 -23.2896 117.205 30 40 984 -23.3000 117.200 TC 55 985 -23.4000 117.100 2 49 -23.2000 117.200 TC 35 983 7 196
1975334S11128 1976 142 SI WA JOAN 1975-12-09 01:00:00 TS -23.4507 117.119 40 985 bom main 0 0 P_____O__PP_P_ SH041976 -23.5088 117.072 48 0 -23.4000 117.200 30 40 985 -23.4465 117.142 TC 53 985 -23.5101 117.077 2 48 -23.3302 117.150 TC 34 983 8 195
1975334S11128 1976 142 SI WA JOAN 1975-12-09 03:00:00 TS -23.7043 117.046 main 0 0 P_____P__PP_P_ SH041976 -23.7075 117.035 45 0 -23.7304 117.070 30 36 986 -23.7575 117.028 TC 50 987 -23.7230 117.040 2 47 -23.6000 117.070 TC 32 985 8 194
1975334S11128 1976 142 SI WA JOAN 1975-12-09 04:00:00 TS -23.8303 117.014 35 987 bom main 0 0 P_____O__PP_P_ SH041976 -23.8029 117.022 43 0 -23.9000 117.000 30 35 987 -23.9129 116.976 TC 48 988 -23.8273 117.025 2 47 -23.7358 117.040 TC 31 986 7 191
1975334S11128 1976 142 SI WA JOAN 1975-12-09 06:00:00 TS -24.0691 116.970 main 0 0 O_____P__OP_O_ jtwc_sh SH041976 -24.0000 117.000 40 0 -24.1800 116.920 30 35 989 -24.2000 116.900 TC 45 990 -24.0349 116.999 2 46 -24.0000 117.000 TC 30 988 7 188
1975334S11128 1976 142 SI WA JOAN 1975-12-09 07:00:00 TS -24.1804 116.954 35 990 bom main 0 0 P_____O__PP_P_ SH041976 -24.1083 116.986 39 0 -24.3000 116.900 30 35 990 -24.3092 116.878 TC 45 990 -24.1396 116.986 2 45 -24.1171 116.986 TC 30 988 7 187
1975334S11128 1976 142 SI WA JOAN 1975-12-09 09:00:00 TS -24.3954 116.935 main 0 0 P_____P__PP_P_ SH041976 -24.3350 116.957 37 0 -24.5054 116.895 30 31 990 -24.5000 116.862 TC 45 991 -24.3543 116.959 2 44 -24.3425 116.977 TC 30 989 7 184
1975334S11128 1976 142 SI WA JOAN 1975-12-09 10:00:00 TS -24.5035 116.929 30 991 bom main 0 0 P_____O__PP_P_ SH041976 -24.4533 116.941 36 0 -24.6000 116.900 20 30 991 -24.5926 116.868 TC 45 991 -24.4657 116.942 2 44 -24.4563 116.981 TC 30 989 7 183
1975334S11128 1976 142 SI WA JOAN 1975-12-09 12:00:00 TS -24.7307 116.915 main 0 0 O_____P__OO_O_ jtwc_sh SH041976 -24.7000 116.900 35 0 -24.7842 116.892 20 30 991 -24.8000 116.900 TC 45 992 -24.7000 116.900 2 43 -24.7000 117.000 TC 30 991 7 184
1975334S11128 1976 142 SI WA JOAN 1975-12-09 13:00:00 TS -24.8567 116.908 30 992 bom main 0 0 P_____O__PP_P_ SH041976 -24.8250 116.875 35 0 -24.9000 116.900 20 30 992 -24.9302 116.919 TC 44 992 -24.8241 116.873 2 -24.8359 117.003 TC 30 991 8 183
1975334S11128 1976 142 SI WA JOAN 1975-12-09 15:00:00 TS -25.1376 116.900 main 0 0 P_____P__PP_P_ SH041976 -25.0850 116.815 37 0 -25.2225 116.961 20 30 992 -25.2200 116.978 TC 42 993 -25.0858 116.809 2 -25.1275 117.020 TC 30 992 9 0
1975334S11128 1976 142 SI WA JOAN 1975-12-09 16:00:00 TS -25.2866 116.897 30 993 bom main 0 0 P_____O__PP_P_ SH041976 -25.2200 116.780 38 0 -25.4000 117.000 20 30 993 -25.3758 117.015 TC 41 993 -25.2224 116.772 2 -25.2812 117.038 TC 30 992 9 183
1975334S11128 1976 142 SI WA JOAN 1975-12-09 18:00:00 TS -25.5898 116.891 main 0 0 O_____P__OP_O_ jtwc_sh SH041976 -25.5000 116.700 40 0 -25.7333 117.059 20 26 993 -25.7000 117.100 TC 40 994 -25.5052 116.689 2 -25.6000 117.100 TC 30 993 9 0
1975334S11128 1976 142 SI WA JOAN 1975-12-09 19:00:00 TS -25.7448 116.892 25 994 bom main 0 0 P_____O__PP_P_ SH041976 -25.6449 116.655 40 0 -25.9000 117.100 80 25 994 -25.8650 117.147 TC 39 994 -25.6506 116.644 2 -25.7633 117.148 TC 30 993 10 177
1975334S11128 1976 142 SI WA JOAN 1975-12-09 21:00:00 TS -26.0688 116.919 main 0 0 P_____P__PP_P_ SH041976 -25.9425 116.558 42 0 -26.2333 117.228 80 25 994 -26.1975 117.245 TC 37 995 -25.9471 116.550 2 -26.0951 117.272 TC 30 994 10 176
1975334S11128 1976 142 SI WA JOAN 1975-12-09 22:00:00 TS -26.2328 116.939 25 995 bom main 0 0 P_____O__PP_P_ SH041976 -26.0941 116.506 43 0 -26.4000 117.300 80 25 995 -26.3647 117.296 TC 36 995 -26.0974 116.501 2 -26.2628 117.344 TC 30 994 10 173
1975334S11128 1976 142 SI WA JOAN 1975-12-10 00:00:00 TS -26.5667 116.996 main 0 0 O_____P__OO_O_ jtwc_sh SH041976 -26.4000 116.400 45 0 -26.7333 117.435 80 25 995 -26.7000 117.400 TC 35 996 -26.4000 116.400 6 -26.6000 117.500 TC 30 995 17 143
1975334S11128 1976 142 SI WA JOAN 1975-12-10 01:00:00 NR -26.9000 117.500 25 996 bom main 0 ______O_______ SH041976 -1 -26.9000 117.500 80 25 996 TC 6 TC 34 127

About IBTrACS Database

This database is a web-friendly format of International Best Track Archive for Climate Stewardship (IBTrACS), a global best track data archive curated by NOAA dating back to 1842.

Updated: 2021-10-08